Medford, Maine
Current Conditions -  °F | °C
As of 10:53 PM on Friday 19 Dec 2014 (Local Time) from KBGR Reporting Station
Clear Clear  
Wind Chill: 20°   Ceiling: Unl
Heat Index: 20°   Visibility: 10mi
Dew Point: 16°   Wind: 3mph
Humidity: 85%   Direction: 310°NW
Pressure: 30.14"   Gusts: NA
Location:  45.4158°N, 68.8178°W
Report Text: KBGR 200353Z 31003KT 10SM CLR M07/M09 A3014 RMK AO2 SLP210 T10671089
Loading
Personal Weather Stations






























Interactive Weather Map New forecast layout! Learn more

10-Day Weather Forecast

Advertisements
Track Severe Weather on mobile